Guarani, Brazil
Current Conditions -  °F | °C
As of 6:00 PM on Sunday 21 Dec 2014 (Local Time) from SBBQ Reporting Station
Broken Clouds Broken Clouds  
Wind Chill: 73°   Ceiling: 8000
Heat Index: 73°   Visibility: 6mi
Dew Point: 66°   Wind: 6mph
Humidity: 78%   Direction: 360°N
Pressure: 30.03"   Gusts: NA
Location:  21.35°S, 43.05°W
Report Text: SBBQ 212000Z 36005KT 9999 SCT035 FEW040TCU BKN080 23/19 Q1017 RETS
Loading
Personal Weather Stations






























Interactive Weather Map New forecast layout! Learn more

10-Day Weather Forecast

Advertisements
Track Severe Weather on mobile